Time;durP1;ratioP1;P1;durP2;ratioP2;P2;SDS_P1;SDS_P2;PMS_P1;PMS_P2;Temp;Humidity;BMP_temperature;BMP_pressure;BME280_temperature;BME280_humidity;BME280_pressure;Samples;Min_cycle;Max_cycle;Signal;HPM_P1;HPM_P2
2023/03/23 00:00:17;;;;;;;;;;;;;;;;;;5073577;28;20395;-67
2023/03/23 00:02:43;;;;;;;;;;;;;;;;;;5073942;28;19908;-67
2023/03/23 00:05:09;;;;;;;;;;;;;;;;;;5075421;28;19909;-67
2023/03/23 00:07:35;;;;;;;;;;;;;;;;;;5073394;28;19915;-67
2023/03/23 00:10:02;;;;;;;;;;;;;;;;;;5075285;28;19952;-67
2023/03/23 00:12:34;;;;;;;;;;;;;;;;;;5075333;28;19908;-67
2023/03/23 00:15:00;;;;;;;;;;;;;;;;;;5074535;28;20333;-67
2023/03/23 00:17:26;;;;;;;;;;;;;;;;;;5074955;28;20006;-67
2023/03/23 00:19:52;;;;;;;;;;;;;;;;;;5074787;28;19961;-67
2023/03/23 00:22:20;;;;;;;;;;;;;;;;;;5074384;28;19912;-67
2023/03/23 00:24:47;;;;;;;;;;;;;;;;;;5074764;28;20379;-67
2023/03/23 00:27:14;;;;;;;;;;;;;;;;;;5074609;28;19908;-68
2023/03/23 00:29:40;;;;;;;;;;;;;;;;;;5074714;28;19912;-68
2023/03/23 00:32:06;;;;;;;;;;;;;;;;;;5074747;28;20340;-68
2023/03/23 00:34:33;;;;;;;;;;;;;;;;;;5074553;28;19995;-68
2023/03/23 00:36:59;;;;;;;;;;;;;;;;;;5092193;28;19973;-67
2023/03/23 00:39:26;;;;;;;;;;;;;;;;;;5076616;28;19912;-68
2023/03/23 00:41:52;;;;;;;;;;;;;;;;;;5094379;28;19908;-67
2023/03/23 00:44:19;;;;;;;;;;;;;;;;;;5076459;28;19939;-67
2023/03/23 00:46:44;;;;;;;;;;;;;;;;;;5094280;28;19909;-67
2023/03/23 00:49:12;;;;;;;;;;;;;;;;;;5094291;28;19958;-67
2023/03/23 00:51:38;;;;;;;;;;;;;;;;;;5094620;28;20406;-67
2023/03/23 00:54:04;;;;;;;;;;;;;;;;;;5094549;28;19909;-67
2023/03/23 00:56:30;;;;;;;;;;;;;;;;;;5094039;28;20433;-67
2023/03/23 00:58:56;;;;;;;;;;;;;;;;;;5076442;28;19915;-67
2023/03/23 01:01:22;;;;;;;;;;;;;;;;;;5094358;28;20283;-67
2023/03/23 01:03:49;;;;;;;;;;;;;;;;;;5093914;28;19915;-67
2023/03/23 01:06:15;;;;;;;;;;;;;;;;;;5094268;28;19908;-67
2023/03/23 01:08:44;;;;;;;;;;;;;;;;;;5094242;28;20395;-67
2023/03/23 01:11:10;;;;;;;;;;;;;;;;;;5075641;28;19933;-67
2023/03/23 01:13:36;;;;;;;;;;;;;;;;;;5094429;28;19919;-67
2023/03/23 01:16:02;;;;;;;;;;;;;;;;;;5094122;28;20018;-67
2023/03/23 01:18:28;;;;;;;;;;;;;;;;;;5093681;28;20283;-67
2023/03/23 01:20:54;;;;;;;;;;;;;;;;;;5094355;28;19909;-67
2023/03/23 01:23:20;;;;;;;;;;;;;;;;;;5093610;28;19950;-67
2023/03/23 01:25:46;;;;;;;;;;;;;;;;;;5094006;28;19915;-67
2023/03/23 01:28:12;;;;;;;;;;;;;;;;;;5094304;28;19909;-68
2023/03/23 01:30:38;;;;;;;;;;;;;;;;;;5093519;28;20014;-66
2023/03/23 01:33:04;;;;;;;;;;;;;;;;;;5094235;28;19912;-66
2023/03/23 01:35:30;;;;;;;;;;;;;;;;;;5093743;28;19927;-67
2023/03/23 01:37:56;;;;;;;;;;;;;;;;;;5093449;28;19908;-68
2023/03/23 01:40:22;;;;;;;;;;;;;;;;;;5094188;28;19997;-68
2023/03/23 01:42:48;;;;;;;;;;;;;;;;;;5093835;28;19916;-66
2023/03/23 01:45:14;;;;;;;;;;;;;;;;;;5093421;28;19908;-69
2023/03/23 01:47:40;;;;;;;;;;;;;;;;;;5093823;28;20392;-66
2023/03/23 01:50:06;;;;;;;;;;;;;;;;;;5075656;28;19954;-69
2023/03/23 01:52:33;;;;;;;;;;;;;;;;;;5093362;28;20407;-66
2023/03/23 01:54:59;;;;;;;;;;;;;;;;;;5093748;28;19909;-67
2023/03/23 01:57:26;;;;;;;;;;;;;;;;;;5095083;28;19962;-67
2023/03/23 01:59:52;;;;;;;;;;;;;;;;;;5097450;28;19912;-67
2023/03/23 02:02:18;;;;;;;;;;;;;;;;;;5079560;28;20386;-67
2023/03/23 02:04:44;;;;;;;;;;;;;;;;;;5079561;28;20428;-67
2023/03/23 02:07:10;;;;;;;;;;;;;;;;;;5097342;28;20352;-67
2023/03/23 02:09:36;;;;;;;;;;;;;;;;;;5097643;28;19952;-67
2023/03/23 02:12:02;;;;;;;;;;;;;;;;;;5097612;28;20003;-67
2023/03/23 02:14:28;;;;;;;;;;;;;;;;;;5097112;28;19962;-68
2023/03/23 02:16:54;;;;;;;;;;;;;;;;;;5097593;28;19916;-68
2023/03/23 02:19:23;;;;;;;;;;;;;;;;;;5097452;28;20394;-67
2023/03/23 02:21:50;;;;;;;;;;;;;;;;;;5097029;28;19908;-68
2023/03/23 02:24:16;;;;;;;;;;;;;;;;;;5097408;28;19951;-69
2023/03/23 02:26:42;;;;;;;;;;;;;;;;;;5096949;28;19996;-68
2023/03/23 02:29:08;;;;;;;;;;;;;;;;;;5097275;28;19912;-67
2023/03/23 02:31:38;;;;;;;;;;;;;;;;;;5079071;28;19915;-67
2023/03/23 02:34:04;;;;;;;;;;;;;;;;;;5097041;28;19908;-67
2023/03/23 02:36:30;;;;;;;;;;;;;;;;;;5096798;28;19920;-68
2023/03/23 02:38:55;;;;;;;;;;;;;;;;;;5097358;28;19908;-67
2023/03/23 02:41:21;;;;;;;;;;;;;;;;;;5096696;28;19991;-67
2023/03/23 02:43:47;;;;;;;;;;;;;;;;;;5097103;28;19912;-67
2023/03/23 02:46:13;;;;;;;;;;;;;;;;;;5096983;28;20364;-67
2023/03/23 02:48:39;;;;;;;;;;;;;;;;;;5096533;28;19908;-67
2023/03/23 02:51:05;;;;;;;;;;;;;;;;;;5097392;28;19951;-67
2023/03/23 02:53:31;;;;;;;;;;;;;;;;;;5079001;28;19915;-67
2023/03/23 02:55:57;;;;;;;;;;;;;;;;;;5096433;28;19920;-67
2023/03/23 02:58:23;;;;;;;;;;;;;;;;;;5097012;28;19915;-67
2023/03/23 03:00:49;;;;;;;;;;;;;;;;;;5096667;28;19915;-67
2023/03/23 03:03:15;;;;;;;;;;;;;;;;;;5096298;28;19908;-67
2023/03/23 03:05:42;;;;;;;;;;;;;;;;;;5078438;28;20288;-67
2023/03/23 03:08:08;;;;;;;;;;;;;;;;;;5096018;28;20279;-67
2023/03/23 03:10:34;;;;;;;;;;;;;;;;;;5077939;28;20257;-68
2023/03/23 03:13:00;;;;;;;;;;;;;;;;;;5078287;28;19908;-68
2023/03/23 03:15:26;;;;;;;;;;;;;;;;;;5096626;28;19915;-68
2023/03/23 03:17:52;;;;;;;;;;;;;;;;;;5095945;28;20299;-67
2023/03/23 03:20:18;;;;;;;;;;;;;;;;;;5096495;28;19919;-67
2023/03/23 03:22:45;;;;;;;;;;;;;;;;;;5096213;28;19908;-67
2023/03/23 03:25:12;;;;;;;;;;;;;;;;;;5095818;28;19908;-67
2023/03/23 03:27:40;;;;;;;;;;;;;;;;;;5096162;28;19915;-68
2023/03/23 03:30:06;;;;;;;;;;;;;;;;;;5095645;28;19908;-68
2023/03/23 03:32:32;;;;;;;;;;;;;;;;;;5077939;28;19908;-68
2023/03/23 03:34:58;;;;;;;;;;;;;;;;;;5095753;28;19912;-68
2023/03/23 03:37:24;;;;;;;;;;;;;;;;;;5095535;28;20050;-68
2023/03/23 03:39:51;;;;;;;;;;;;;;;;;;5095919;28;19908;-68
2023/03/23 03:42:16;;;;;;;;;;;;;;;;;;5095938;28;19915;-68
2023/03/23 03:44:42;;;;;;;;;;;;;;;;;;5095402;28;20284;-68
2023/03/23 03:47:08;;;;;;;;;;;;;;;;;;5077652;28;20360;-68
2023/03/23 03:49:35;;;;;;;;;;;;;;;;;;5077451;28;20326;-68
2023/03/23 03:52:01;;;;;;;;;;;;;;;;;;5095321;28;19994;-68
2023/03/23 03:54:27;;;;;;;;;;;;;;;;;;5096197;28;19951;-68
2023/03/23 03:56:57;;;;;;;;;;;;;;;;;;5095522;28;19916;-68
2023/03/23 03:59:23;;;;;;;;;;;;;;;;;;5095173;28;19908;-68
2023/03/23 04:01:53;;;;;;;;;;;;;;;;;;5095467;28;20432;-68
2023/03/23 04:04:19;;;;;;;;;;;;;;;;;;5077264;28;19909;-68
2023/03/23 04:06:48;;;;;;;;;;;;;;;;;;5095016;28;20045;-68
2023/03/23 04:09:14;;;;;;;;;;;;;;;;;;5095380;28;19915;-68
2023/03/23 04:11:40;;;;;;;;;;;;;;;;;;5095568;28;19908;-68
2023/03/23 04:14:06;;;;;;;;;;;;;;;;;;5094777;28;19908;-68
2023/03/23 04:16:34;;;;;;;;;;;;;;;;;;5095423;28;19969;-68
2023/03/23 04:19:00;;;;;;;;;;;;;;;;;;5095290;28;19915;-68
2023/03/23 04:21:28;;;;;;;;;;;;;;;;;;5093887;28;20007;-67
2023/03/23 04:23:54;;;;;;;;;;;;;;;;;;5095126;28;19912;-69
2023/03/23 04:26:20;;;;;;;;;;;;;;;;;;5094642;28;19909;-67
2023/03/23 04:28:47;;;;;;;;;;;;;;;;;;5094953;28;19908;-68
2023/03/23 04:31:14;;;;;;;;;;;;;;;;;;5094903;28;19908;-68
2023/03/23 04:33:40;;;;;;;;;;;;;;;;;;5094492;28;19950;-67
2023/03/23 04:36:06;;;;;;;;;;;;;;;;;;5094619;28;19952;-66
2023/03/23 04:38:33;;;;;;;;;;;;;;;;;;5095311;28;19916;-68
2023/03/23 04:41:01;;;;;;;;;;;;;;;;;;5094345;28;19908;-68
2023/03/23 04:43:27;;;;;;;;;;;;;;;;;;5094654;28;19965;-67
2023/03/23 04:45:55;;;;;;;;;;;;;;;;;;5094673;28;19911;-68
2023/03/23 04:48:22;;;;;;;;;;;;;;;;;;5076196;28;19915;-67
2023/03/23 04:50:50;;;;;;;;;;;;;;;;;;5076330;28;19958;-67
2023/03/23 04:53:17;;;;;;;;;;;;;;;;;;5076471;28;19919;-68
2023/03/23 04:55:43;;;;;;;;;;;;;;;;;;5075799;28;19919;-68
2023/03/23 04:58:09;;;;;;;;;;;;;;;;;;5094453;28;19908;-69
2023/03/23 05:00:35;;;;;;;;;;;;;;;;;;5076301;28;19908;-70
2023/03/23 05:03:01;;;;;;;;;;;;;;;;;;5093996;28;19959;-68
2023/03/23 05:05:29;;;;;;;;;;;;;;;;;;5094318;28;19912;-69
2023/03/23 05:07:55;;;;;;;;;;;;;;;;;;5074985;28;20356;-68
2023/03/23 05:10:21;;;;;;;;;;;;;;;;;;5075676;28;20257;-68
2023/03/23 05:12:47;;;;;;;;;;;;;;;;;;5076048;28;19933;-68
2023/03/23 05:15:13;;;;;;;;;;;;;;;;;;5075993;28;19964;-69
2023/03/23 05:17:40;;;;;;;;;;;;;;;;;;5093563;28;19912;-68
2023/03/23 05:20:09;;;;;;;;;;;;;;;;;;5076003;28;19912;-68
2023/03/23 05:22:36;;;;;;;;;;;;;;;;;;5093046;28;19915;-68
2023/03/23 05:25:05;;;;;;;;;;;;;;;;;;5094122;28;19954;-68
2023/03/23 05:27:32;;;;;;;;;;;;;;;;;;5093921;28;19916;-68
2023/03/23 05:29:58;;;;;;;;;;;;;;;;;;5092192;28;20364;-69
2023/03/23 05:32:28;;;;;;;;;;;;;;;;;;5094094;28;19912;-68
2023/03/23 05:34:54;;;;;;;;;;;;;;;;;;5093744;28;19943;-68
2023/03/23 05:37:20;;;;;;;;;;;;;;;;;;5093057;28;19959;-68
2023/03/23 05:39:46;;;;;;;;;;;;;;;;;;5092915;28;19915;-67
2023/03/23 05:42:12;;;;;;;;;;;;;;;;;;5092393;28;19998;-67
2023/03/23 05:44:38;;;;;;;;;;;;;;;;;;5091586;28;19954;-67
2023/03/23 05:47:04;;;;;;;;;;;;;;;;;;5073577;28;20372;-67
2023/03/23 05:49:30;;;;;;;;;;;;;;;;;;5091745;28;19944;-67
2023/03/23 05:51:56;;;;;;;;;;;;;;;;;;5091237;28;19931;-67
2023/03/23 05:54:22;;;;;;;;;;;;;;;;;;5073448;28;20364;-67
2023/03/23 05:56:48;;;;;;;;;;;;;;;;;;5091599;28;19955;-67
2023/03/23 05:59:14;;;;;;;;;;;;;;;;;;5093092;28;20328;-67
2023/03/23 06:01:40;;;;;;;;;;;;;;;;;;5093636;28;19908;-67
2023/03/23 06:04:06;;;;;;;;;;;;;;;;;;5093672;28;19915;-66
2023/03/23 06:06:32;;;;;;;;;;;;;;;;;;5093336;28;20367;-67
2023/03/23 06:08:58;;;;;;;;;;;;;;;;;;5075387;28;19908;-67
2023/03/23 06:11:25;;;;;;;;;;;;;;;;;;5093663;28;19908;-67
2023/03/23 06:13:51;;;;;;;;;;;;;;;;;;5091431;28;20342;-66
2023/03/23 06:16:17;;;;;;;;;;;;;;;;;;5092261;28;20049;-66
2023/03/23 06:18:43;;;;;;;;;;;;;;;;;;5088997;28;19941;-68
2023/03/23 06:21:09;;;;;;;;;;;;;;;;;;5074190;28;19998;-71
2023/03/23 06:23:37;;;;;;;;;;;;;;;;;;5092744;28;19909;-72
2023/03/23 06:26:03;;;;;;;;;;;;;;;;;;5092158;28;19931;-66
2023/03/23 06:28:29;;;;;;;;;;;;;;;;;;5074122;28;20367;-67
2023/03/23 06:30:55;;;;;;;;;;;;;;;;;;5084353;28;19927;-68
2023/03/23 06:33:21;;;;;;;;;;;;;;;;;;5089245;28;19912;-68
2023/03/23 06:35:48;;;;;;;;;;;;;;;;;;5080135;28;20287;-68
2023/03/23 06:38:20;;;;;;;;;;;;;;;;;;5065461;28;20294;-68
2023/03/23 06:40:48;;;;;;;;;;;;;;;;;;5090803;28;20315;-67
2023/03/23 06:43:14;;;;;;;;;;;;;;;;;;5086791;28;19938;-67
2023/03/23 06:45:40;;;;;;;;;;;;;;;;;;5083500;28;19916;-68
2023/03/23 06:48:06;;;;;;;;;;;;;;;;;;5078718;28;20357;-67
2023/03/23 06:50:32;;;;;;;;;;;;;;;;;;5094381;28;19908;-68
2023/03/23 06:52:59;;;;;;;;;;;;;;;;;;5087639;28;19919;-67
2023/03/23 06:55:25;;;;;;;;;;;;;;;;;;5088959;28;19908;-67
2023/03/23 06:57:53;;;;;;;;;;;;;;;;;;5077500;28;19923;-67
2023/03/23 07:00:19;;;;;;;;;;;;;;;;;;5074493;28;19909;-70
2023/03/23 07:02:45;;;;;;;;;;;;;;;;;;5091663;28;20444;-68
2023/03/23 07:05:11;;;;;;;;;;;;;;;;;;5094907;28;19915;-68
2023/03/23 07:10:27;;;;;;;;;;;;;;;;;;5090939;28;19935;-65
2023/03/23 07:12:53;;;;;;;;;;;;;;;;;;5093852;28;19919;-66
2023/03/23 07:15:19;;;;;;;;;;;;;;;;;;5089144;28;19916;-67
2023/03/23 07:17:45;;;;;;;;;;;;;;;;;;5066254;28;20269;-68
2023/03/23 07:20:11;;;;;;;;;;;;;;;;;;5083068;28;19944;-68
2023/03/23 07:22:38;;;;;;;;;;;;;;;;;;5093032;28;19944;-69
2023/03/23 07:25:04;;;;;;;;;;;;;;;;;;5074216;28;19912;-69
2023/03/23 07:27:30;;;;;;;;;;;;;;;;;;5092120;28;19965;-69
2023/03/23 07:29:57;;;;;;;;;;;;;;;;;;5074884;28;19908;-70
2023/03/23 07:32:24;;;;;;;;;;;;;;;;;;5093538;28;19908;-71
2023/03/23 07:34:50;;;;;;;;;;;;;;;;;;5092020;28;20276;-73
2023/03/23 07:37:16;;;;;;;;;;;;;;;;;;5092735;28;19924;-72
2023/03/23 07:39:42;;;;;;;;;;;;;;;;;;5091698;28;20387;-72
2023/03/23 07:42:08;;;;;;;;;;;;;;;;;;5076324;28;19909;-72
2023/03/23 07:44:35;;;;;;;;;;;;;;;;;;5093821;28;19948;-73
2023/03/23 07:47:01;;;;;;;;;;;;;;;;;;5094432;28;20314;-72
2023/03/23 07:49:27;;;;;;;;;;;;;;;;;;5074150;28;19957;-73
2023/03/23 07:51:53;;;;;;;;;;;;;;;;;;5093846;28;19912;-72
2023/03/23 07:54:19;;;;;;;;;;;;;;;;;;5092442;28;20002;-72
2023/03/23 07:56:45;;;;;;;;;;;;;;;;;;5089097;28;20364;-69
2023/03/23 07:59:12;;;;;;;;;;;;;;;;;;5089872;28;19961;-68
2023/03/23 08:01:38;;;;;;;;;;;;;;;;;;5089046;28;19973;-68
2023/03/23 08:04:05;;;;;;;;;;;;;;;;;;5090066;28;19912;-69
2023/03/23 08:06:31;;;;;;;;;;;;;;;;;;5088096;28;19934;-69
2023/03/23 08:08:57;;;;;;;;;;;;;;;;;;5087586;28;19969;-69
2023/03/23 08:11:24;;;;;;;;;;;;;;;;;;5087559;28;19908;-70
2023/03/23 08:13:49;;;;;;;;;;;;;;;;;;5089108;28;19978;-68
2023/03/23 08:16:15;;;;;;;;;;;;;;;;;;5071152;28;19916;-68
2023/03/23 08:18:42;;;;;;;;;;;;;;;;;;5087572;28;19912;-68
2023/03/23 08:21:09;;;;;;;;;;;;;;;;;;5084820;28;19916;-68
2023/03/23 08:23:34;;;;;;;;;;;;;;;;;;5087342;28;19915;-68
2023/03/23 08:26:01;;;;;;;;;;;;;;;;;;5086445;28;19908;-67
2023/03/23 08:28:27;;;;;;;;;;;;;;;;;;5069638;28;20393;-68
2023/03/23 08:30:52;;;;;;;;;;;;;;;;;;5088057;28;19915;-67
2023/03/23 08:33:21;;;;;;;;;;;;;;;;;;5088332;28;19908;-68
2023/03/23 08:35:47;;;;;;;;;;;;;;;;;;5087316;28;20011;-67
2023/03/23 08:38:13;;;;;;;;;;;;;;;;;;5089868;28;20010;-67
2023/03/23 08:40:39;;;;;;;;;;;;;;;;;;5091806;28;20397;-67
2023/03/23 08:43:05;;;;;;;;;;;;;;;;;;5074639;28;19958;-68
2023/03/23 08:46:29;;;;;;;;;;;;;;;;;;5108543;27;19926;-66
2023/03/23 08:48:55;;;;;;;;;;;;;;;;;;5109359;28;19912;-67
2023/03/23 08:51:21;;;;;;;;;;;;;;;;;;5101437;28;19915;-73
2023/03/23 08:54:12;;;;;;;;;;;;;;;;;;5063306;28;20342;-72
2023/03/23 09:03:24;;;;;;;;;;;;;;;;;;5108842;27;19916;-68
2023/03/23 09:05:50;;;;;;;;;;;;;;;;;;5106360;28;19916;-67
2023/03/23 09:08:16;;;;;;;;;;;;;;;;;;5106175;28;20492;-70
2023/03/23 09:19:45;;;;;;;;;;;;;;;;;;5087468;27;19943;-69
2023/03/23 09:22:11;;;;;;;;;;;;;;;;;;5086490;28;19912;-70
2023/03/23 09:27:00;;;;;;;;;;;;;;;;;;5106103;27;21554;-69
2023/03/23 09:29:26;;;;;;;;;;;;;;;;;;5106501;28;19966;-66
2023/03/23 09:34:22;;;;;;;;;;;;;;;;;;5150594;27;19911;-66
2023/03/23 09:36:49;;;;;;;;;;;;;;;;;;5141184;27;19926;-66
2023/03/23 09:39:16;;;;;;;;;;;;;;;;;;5107710;28;20027;-66
2023/03/23 09:41:44;;;;;;;;;;;;;;;;;;5126165;27;20006;-66
2023/03/23 09:44:10;;;;;;;;;;;;;;;;;;5108101;28;19915;-66
2023/03/23 09:46:36;;;;;;;;;;;;;;;;;;5122733;27;20429;-66
2023/03/23 09:50:06;;;;;;;;;;;;;;;;;;5085365;27;19912;-66
2023/03/23 09:53:56;;;;;;;;;;;;;;;;;;5086897;28;19916;-65
2023/03/23 09:57:44;;;;;;;;;;;;;;;;;;5147261;27;19911;-65
2023/03/23 10:02:11;;;;;;;;;;;;;;;;;;5087345;27;19912;-66
2023/03/23 10:05:47;;;;;;;;;;;;;;;;;;4953218;27;5988162;-66
2023/03/23 10:08:13;;;;;;;;;;;;;;;;;;5126879;27;19911;-70
2023/03/23 10:16:40;;;;;;;;;;;;;;;;;;5087375;27;20340;-70
2023/03/23 10:22:52;;;;;;;;;;;;;;;;;;5105609;27;19915;-66
2023/03/23 10:25:18;;;;;;;;;;;;;;;;;;5105124;28;20334;-67
2023/03/23 10:27:56;;;;;;;;;;;;;;;;;;5137860;27;20162;-68
2023/03/23 10:30:22;;;;;;;;;;;;;;;;;;5128898;28;20015;-68
2023/03/23 10:32:49;;;;;;;;;;;;;;;;;;5111328;28;19915;-69
2023/03/23 10:35:15;;;;;;;;;;;;;;;;;;5128585;28;20363;-72
2023/03/23 10:37:41;;;;;;;;;;;;;;;;;;5127259;28;19914;-72
2023/03/23 10:44:18;;;;;;;;;;;;;;;;;;5125340;27;19912;-71
2023/03/23 10:46:48;;;;;;;;;;;;;;;;;;5128213;28;20445;-68
2023/03/23 10:49:14;;;;;;;;;;;;;;;;;;5122921;27;20673;-68
2023/03/23 10:51:40;;;;;;;;;;;;;;;;;;5104118;28;19934;-68
2023/03/23 10:54:51;;;;;;;;;;;;;;;;;;5102689;27;20288;-68
2023/03/23 10:59:59;;;;;;;;;;;;;;;;;;5089553;27;19913;-67
2023/03/23 11:06:53;;;;;;;;;;;;;;;;;;5076946;27;19927;-66
2023/03/23 11:09:53;;;;;;;;;;;;;;;;;;5106379;27;19920;-67
2023/03/23 11:12:20;;;;;;;;;;;;;;;;;;5104561;28;20300;-67
2023/03/23 11:14:46;;;;;;;;;;;;;;;;;;5104001;28;19964;-67
2023/03/23 11:17:12;;;;;;;;;;;;;;;;;;5106291;28;20310;-66
2023/03/23 11:19:51;;;;;;;;;;;;;;;;;;5107125;27;19916;-67
2023/03/23 11:22:17;;;;;;;;;;;;;;;;;;5107537;28;19911;-66
2023/03/23 11:25:01;;;;;;;;;;;;;;;;;;5146207;27;19942;-67
2023/03/23 11:27:27;;;;;;;;;;;;;;;;;;5129148;28;20295;-67
2023/03/23 11:29:53;;;;;;;;;;;;;;;;;;5129008;28;19911;-68
2023/03/23 11:32:20;;;;;;;;;;;;;;;;;;5128602;28;19912;-67
2023/03/23 11:34:47;;;;;;;;;;;;;;;;;;5130264;28;19912;-68
2023/03/23 11:37:15;;;;;;;;;;;;;;;;;;5111032;28;19976;-67
2023/03/23 11:39:41;;;;;;;;;;;;;;;;;;5110165;28;19987;-67
2023/03/23 11:42:07;;;;;;;;;;;;;;;;;;5127382;28;19915;-68
2023/03/23 11:44:33;;;;;;;;;;;;;;;;;;5109907;28;20602;-67
2023/03/23 11:46:59;;;;;;;;;;;;;;;;;;5119956;28;20416;-68
2023/03/23 11:49:25;;;;;;;;;;;;;;;;;;5119460;28;19912;-68
2023/03/23 11:51:52;;;;;;;;;;;;;;;;;;5123849;28;19912;-67
2023/03/23 11:54:18;;;;;;;;;;;;;;;;;;5108996;28;19950;-69
2023/03/23 11:56:45;;;;;;;;;;;;;;;;;;5108919;28;20329;-67
2023/03/23 11:59:13;;;;;;;;;;;;;;;;;;5109680;28;20315;-67
2023/03/23 12:01:41;;;;;;;;;;;;;;;;;;5113965;28;20387;-68
2023/03/23 12:04:08;;;;;;;;;;;;;;;;;;5129699;28;19916;-66
2023/03/23 12:06:34;;;;;;;;;;;;;;;;;;5110307;28;19959;-67
2023/03/23 12:09:00;;;;;;;;;;;;;;;;;;5110938;28;19994;-66
2023/03/23 12:11:26;;;;;;;;;;;;;;;;;;5128492;28;19907;-67
2023/03/23 12:15:31;;;;;;;;;;;;;;;;;;5151099;27;19916;-67
2023/03/23 12:18:10;;;;;;;;;;;;;;;;;;5035262;27;3164818;-67
2023/03/23 12:20:36;;;;;;;;;;;;;;;;;;5126293;27;19923;-67
2023/03/23 12:23:02;;;;;;;;;;;;;;;;;;5131935;27;19908;-68
2023/03/23 12:25:28;;;;;;;;;;;;;;;;;;5128589;28;20474;-67
2023/03/23 12:27:55;;;;;;;;;;;;;;;;;;5142976;27;20002;-70
2023/03/23 12:32:36;;;;;;;;;;;;;;;;;;5149395;27;19916;-68
2023/03/23 12:37:28;;;;;;;;;;;;;;;;;;5090263;27;19917;-68
2023/03/23 12:40:24;;;;;;;;;;;;;;;;;;5106652;27;19924;-67
2023/03/23 12:42:50;;;;;;;;;;;;;;;;;;5098454;28;19935;-67
2023/03/23 12:47:30;;;;;;;;;;;;;;;;;;5076370;27;19917;-71
2023/03/23 12:49:56;;;;;;;;;;;;;;;;;;5066203;28;19917;-72
2023/03/23 12:52:22;;;;;;;;;;;;;;;;;;5068510;28;19966;-70
2023/03/23 12:56:27;;;;;;;;;;;;;;;;;;5109805;27;19912;-70
2023/03/23 12:58:53;;;;;;;;;;;;;;;;;;5109012;28;19916;-72
2023/03/23 13:01:21;;;;;;;;;;;;;;;;;;5109288;28;19915;-72
2023/03/23 13:03:47;;;;;;;;;;;;;;;;;;5089956;28;19959;-72
2023/03/23 13:06:13;;;;;;;;;;;;;;;;;;5089626;28;19908;-70
2023/03/23 13:08:40;;;;;;;;;;;;;;;;;;5087148;28;19915;-70
2023/03/23 13:11:06;;;;;;;;;;;;;;;;;;5088099;28;19915;-71
2023/03/23 13:13:32;;;;;;;;;;;;;;;;;;5088347;28;19947;-68
2023/03/23 13:15:58;;;;;;;;;;;;;;;;;;5088186;28;19963;-67
2023/03/23 13:18:24;;;;;;;;;;;;;;;;;;5086495;28;19939;-68
2023/03/23 13:20:50;;;;;;;;;;;;;;;;;;5102248;28;19981;-67
2023/03/23 13:25:10;;;;;;;;;;;;;;;;;;5109537;27;19916;-66
2023/03/23 13:27:36;;;;;;;;;;;;;;;;;;5110807;28;19912;-66
2023/03/23 13:30:04;;;;;;;;;;;;;;;;;;5109046;28;19959;-66
2023/03/23 13:32:33;;;;;;;;;;;;;;;;;;5109324;28;19919;-66
2023/03/23 13:34:59;;;;;;;;;;;;;;;;;;5108192;28;19908;-66
2023/03/23 13:37:25;;;;;;;;;;;;;;;;;;5111285;28;19991;-66
2023/03/23 13:39:53;;;;;;;;;;;;;;;;;;5111018;28;20405;-66
2023/03/23 13:42:20;;;;;;;;;;;;;;;;;;5110617;28;19940;-66
2023/03/23 13:44:47;;;;;;;;;;;;;;;;;;5110938;28;19922;-67
2023/03/23 13:47:13;;;;;;;;;;;;;;;;;;5111013;28;20014;-66
2023/03/23 13:49:39;;;;;;;;;;;;;;;;;;5110503;28;20372;-67
2023/03/23 13:52:05;;;;;;;;;;;;;;;;;;5111405;28;19954;-67
2023/03/23 13:54:31;;;;;;;;;;;;;;;;;;5111125;28;20053;-67
2023/03/23 13:56:58;;;;;;;;;;;;;;;;;;5110653;28;19915;-67
2023/03/23 13:59:24;;;;;;;;;;;;;;;;;;5111974;28;19908;-67
2023/03/23 14:01:49;;;;;;;;;;;;;;;;;;5110975;28;19912;-66
2023/03/23 14:04:15;;;;;;;;;;;;;;;;;;5110420;28;19916;-66
2023/03/23 14:06:41;;;;;;;;;;;;;;;;;;5111301;28;19912;-66
2023/03/23 14:09:09;;;;;;;;;;;;;;;;;;5110852;28;20387;-67
2023/03/23 14:11:41;;;;;;;;;;;;;;;;;;5108987;28;20364;-67
2023/03/23 14:14:07;;;;;;;;;;;;;;;;;;5111102;28;19908;-66
2023/03/23 14:16:33;;;;;;;;;;;;;;;;;;5110559;28;20003;-66
2023/03/23 14:18:59;;;;;;;;;;;;;;;;;;5108911;28;19919;-66
2023/03/23 14:21:26;;;;;;;;;;;;;;;;;;5110551;28;19915;-66
2023/03/23 14:23:54;;;;;;;;;;;;;;;;;;5110147;28;19920;-68
2023/03/23 14:26:20;;;;;;;;;;;;;;;;;;5110173;28;20276;-66
2023/03/23 14:28:47;;;;;;;;;;;;;;;;;;5110440;28;19908;-67
2023/03/23 14:31:13;;;;;;;;;;;;;;;;;;5109997;28;19953;-66
2023/03/23 14:33:41;;;;;;;;;;;;;;;;;;5110402;28;19912;-67
2023/03/23 14:36:07;;;;;;;;;;;;;;;;;;5099212;28;20382;-68
2023/03/23 14:38:33;;;;;;;;;;;;;;;;;;5096370;28;19915;-68
2023/03/23 14:40:59;;;;;;;;;;;;;;;;;;5097087;28;19908;-67
2023/03/23 14:43:24;;;;;;;;;;;;;;;;;;5096860;28;20382;-67
2023/03/23 14:45:50;;;;;;;;;;;;;;;;;;5096318;28;19908;-66
2023/03/23 14:48:16;;;;;;;;;;;;;;;;;;5096576;28;20003;-67
2023/03/23 14:50:42;;;;;;;;;;;;;;;;;;5096611;28;19912;-66
2023/03/23 14:53:08;;;;;;;;;;;;;;;;;;5095878;28;19908;-67
2023/03/23 14:55:34;;;;;;;;;;;;;;;;;;5096620;28;20002;-67
2023/03/23 14:58:00;;;;;;;;;;;;;;;;;;5096698;28;19908;-67
2023/03/23 15:00:26;;;;;;;;;;;;;;;;;;5095770;28;19954;-67
2023/03/23 15:02:52;;;;;;;;;;;;;;;;;;5093737;28;19922;-67
2023/03/23 15:05:18;;;;;;;;;;;;;;;;;;5094194;28;19912;-67
2023/03/23 15:07:44;;;;;;;;;;;;;;;;;;5093790;28;19930;-67
2023/03/23 15:10:11;;;;;;;;;;;;;;;;;;5093973;28;19908;-67
2023/03/23 15:12:37;;;;;;;;;;;;;;;;;;5093854;28;19908;-67
2023/03/23 15:15:03;;;;;;;;;;;;;;;;;;5093482;28;19908;-67
2023/03/23 15:17:30;;;;;;;;;;;;;;;;;;5094350;28;19912;-66
2023/03/23 15:19:58;;;;;;;;;;;;;;;;;;5095865;28;19912;-66
2023/03/23 15:22:25;;;;;;;;;;;;;;;;;;5095528;28;19935;-67
2023/03/23 15:24:52;;;;;;;;;;;;;;;;;;5095693;28;20285;-66
2023/03/23 15:27:18;;;;;;;;;;;;;;;;;;5095496;28;19943;-67
2023/03/23 15:29:45;;;;;;;;;;;;;;;;;;5096319;28;20321;-66
2023/03/23 15:32:11;;;;;;;;;;;;;;;;;;5095714;28;19915;-67
2023/03/23 15:34:41;;;;;;;;;;;;;;;;;;5095235;28;20246;-67
2023/03/23 15:37:07;;;;;;;;;;;;;;;;;;5095625;28;19908;-67
2023/03/23 15:39:32;;;;;;;;;;;;;;;;;;5095804;28;19908;-67
2023/03/23 15:41:58;;;;;;;;;;;;;;;;;;5095081;28;19908;-67
2023/03/23 15:44:25;;;;;;;;;;;;;;;;;;5095350;28;19963;-67
2023/03/23 15:46:51;;;;;;;;;;;;;;;;;;5094361;28;19994;-67
2023/03/23 15:49:17;;;;;;;;;;;;;;;;;;5095102;28;19915;-67
2023/03/23 15:51:42;;;;;;;;;;;;;;;;;;5095238;28;19915;-68
2023/03/23 15:54:08;;;;;;;;;;;;;;;;;;5095263;28;19908;-67
2023/03/23 15:56:34;;;;;;;;;;;;;;;;;;5094909;28;19908;-67
2023/03/23 15:59:00;;;;;;;;;;;;;;;;;;5095221;28;19955;-67
2023/03/23 16:01:26;;;;;;;;;;;;;;;;;;5095698;28;19991;-67
2023/03/23 16:03:52;;;;;;;;;;;;;;;;;;5094695;28;19942;-68
2023/03/23 16:06:18;;;;;;;;;;;;;;;;;;5095101;28;19908;-67
2023/03/23 16:08:45;;;;;;;;;;;;;;;;;;5095636;28;20382;-68
2023/03/23 16:11:11;;;;;;;;;;;;;;;;;;5094630;28;19915;-67
2023/03/23 16:13:37;;;;;;;;;;;;;;;;;;5094954;28;19908;-67
2023/03/23 16:16:03;;;;;;;;;;;;;;;;;;5094920;28;19908;-67
2023/03/23 16:18:30;;;;;;;;;;;;;;;;;;5094440;28;19981;-68
2023/03/23 16:20:56;;;;;;;;;;;;;;;;;;5094765;28;19908;-67
2023/03/23 16:23:22;;;;;;;;;;;;;;;;;;5094418;28;19943;-67
2023/03/23 16:25:48;;;;;;;;;;;;;;;;;;5094217;28;19914;-67
2023/03/23 16:28:14;;;;;;;;;;;;;;;;;;5094696;28;20290;-67
2023/03/23 16:30:40;;;;;;;;;;;;;;;;;;5094176;28;20368;-69
2023/03/23 16:33:06;;;;;;;;;;;;;;;;;;5076617;28;19997;-67
2023/03/23 16:35:32;;;;;;;;;;;;;;;;;;5094699;28;19908;-68
2023/03/23 16:37:58;;;;;;;;;;;;;;;;;;5093934;28;20364;-67
2023/03/23 16:40:35;;;;;;;;;;;;;;;;;;5091436;27;19923;-68
2023/03/23 16:43:01;;;;;;;;;;;;;;;;;;5091261;28;20006;-66
2023/03/23 16:45:28;;;;;;;;;;;;;;;;;;5089592;28;19919;-66
2023/03/23 16:48:48;;;;;;;;;;;;;;;;;;5112603;27;19916;-65
2023/03/23 16:51:14;;;;;;;;;;;;;;;;;;5112072;28;20004;-67
2023/03/23 16:53:40;;;;;;;;;;;;;;;;;;5111378;28;20332;-66
2023/03/23 16:56:06;;;;;;;;;;;;;;;;;;5111940;28;19915;-67
2023/03/23 16:58:32;;;;;;;;;;;;;;;;;;5111586;28;19909;-66
2023/03/23 17:00:58;;;;;;;;;;;;;;;;;;5111097;28;20360;-67
2023/03/23 17:05:23;;;;;;;;;;;;;;;;;;5092001;27;20279;-67
2023/03/23 17:07:49;;;;;;;;;;;;;;;;;;5090933;28;19995;-67
2023/03/23 17:12:36;;;;;;;;;;;;;;;;;;5091763;27;20295;-66
2023/03/23 17:22:50;;;;;;;;;;;;;;;;;;5072026;28;20316;-67
2023/03/23 17:26:48;;;;;;;;;;;;;;;;;;5071975;28;19923;-66
2023/03/23 17:35:42;;;;;;;;;;;;;;;;;;5091268;27;19916;-66
2023/03/23 17:38:08;;;;;;;;;;;;;;;;;;5091560;28;20003;-67
2023/03/23 17:40:34;;;;;;;;;;;;;;;;;;5091266;28;20394;-66
2023/03/23 17:43:00;;;;;;;;;;;;;;;;;;5090670;28;19909;-67
2023/03/23 17:45:26;;;;;;;;;;;;;;;;;;5091059;28;19909;-67
2023/03/23 17:49:01;;;;;;;;;;;;;;;;;;5091469;27;19923;-68
2023/03/23 17:51:56;;;;;;;;;;;;;;;;;;5092193;27;19922;-68
2023/03/23 17:54:24;;;;;;;;;;;;;;;;;;5091438;28;20003;-68
2023/03/23 17:56:50;;;;;;;;;;;;;;;;;;5090850;28;19914;-67
2023/03/23 17:59:16;;;;;;;;;;;;;;;;;;5091292;28;19912;-66
2023/03/23 18:03:57;;;;;;;;;;;;;;;;;;5110925;27;20369;-65
2023/03/23 18:06:23;;;;;;;;;;;;;;;;;;5111485;28;19954;-68
2023/03/23 18:08:49;;;;;;;;;;;;;;;;;;5111652;28;19943;-67
2023/03/23 18:11:16;;;;;;;;;;;;;;;;;;5111418;28;20481;-66